This is the latest recevied weather packets stored in our database for station/object JI6FPP-13. If no packets are shown the sender has not sent any weather packets the latest 1 day(s).
| Time | Temp. | Humidity | Pressure | Rain* | Wind** | Luminosity | Snow |
|---|---|---|---|---|---|---|---|
| 1778030780 | 26.67° C | 20% | 1014 hPa | 0 mm | - | - | - |
| 1778030180 | 26.11° C | 22% | 1014 hPa | 0 mm | - | - | - |
| 1778029579 | 24.44° C | 22% | 1013 hPa | 0 mm | - | - | - |
| 1778028979 | 25° C | 24% | 1013 hPa | 0 mm | - | - | - |
| 1778027780 | 23.89° C | 25% | 1013 hPa | 0 mm | - | - | - |
| 1778027179 | 23.89° C | 25% | 1013 hPa | 0 mm | - | - | - |
| 1778025980 | 23.33° C | 30% | 1014 hPa | 0 mm | - | - | - |
| 1778025380 | 22.78° C | 32% | 1014 hPa | 0 mm | - | - | - |
| 1778022980 | 20° C | 41% | 1013 hPa | 0 mm | - | - | - |
| 1778022381 | 18.89° C | 46% | 1013 hPa | 0 mm | - | - | - |
| 1778021781 | 17.22° C | 46% | 1013 hPa | 0 mm | - | - | - |
| 1778019380 | 14.44° C | 54% | 1014 hPa | 0 mm | - | - | - |
| 1778018780 | 13.89° C | 59% | 1013 hPa | 0 mm | - | - | - |
| 1778018180 | 13.33° C | 60% | 1013 hPa | 0 mm | - | - | - |
| 1778015781 | 12.22° C | 61% | 1012 hPa | 0 mm | - | - | - |
| 1778015180 | 12.22° C | 62% | 1013 hPa | 0 mm | - | - | - |
| 1778014580 | 11.67° C | 63% | 1013 hPa | 0 mm | - | - | - |
| 1778010381 | 11.11° C | 61% | 1013 hPa | 0 mm | - | - | - |
| 1778009180 | 11.67° C | 60% | 1013 hPa | 0 mm | - | - | - |
| 1778007980 | 11.67° C | 61% | 1013 hPa | 0 mm | - | - | - |
| 1778004380 | 11.11° C | 57% | 1012 hPa | 0 mm | - | - | - |
| 1778002581 | 11.67° C | 57% | 1013 hPa | 0 mm | - | - | - |
| 1778000780 | 11.67° C | 55% | 1014 hPa | 0 mm | - | - | - |
| 1777998381 | 12.22° C | 53% | 1014 hPa | 0 mm | - | - | - |
* Rain latest hour (hover to see other rain measurements)
** Current wind speed in m/s (hover to see current wind gust speed)